Time;durP1;ratioP1;P1;durP2;ratioP2;P2;SDS_P1;SDS_P2;PMS_P1;PMS_P2;Temp;Humidity;BMP_temperature;BMP_pressure;BME280_temperature;BME280_humidity;BME280_pressure;Samples;Min_cycle;Max_cycle;Signal;HPM_P1;HPM_P2
2022/08/12 00:45:10;;;;;;;4.43;2.88;;;;;;;32.61;26.68;100830.63;4971858;28;20121;-73
2022/08/12 00:47:41;;;;;;;7.10;2.50;;;;;;;32.63;26.44;100829.59;4976809;28;20054;-75
2022/08/12 00:50:17;;;;;;;3.55;2.47;;;;;;;32.64;26.73;100825.94;4971236;28;20530;-74
2022/08/12 00:52:47;;;;;;;3.38;2.50;;;;;;;32.61;26.64;100823.47;4979546;28;20050;-73
2022/08/12 00:55:16;;;;;;;8.02;2.63;;;;;;;32.58;27.13;100826.34;4984677;28;20504;-73
2022/08/12 00:57:48;;;;;;;4.05;2.50;;;;;;;32.58;27.24;100826.34;4956881;28;20137;-77
2022/08/12 01:00:20;;;;;;;;;;;;;;;32.56;27.20;100822.88;4965752;28;20060;-74
2022/08/12 01:02:56;;;;;;;4.80;2.60;;;;;;;32.43;27.48;100824.56;4964997;28;19928;-72
2022/08/12 01:13:48;;;;;;;6.88;2.28;;;;;;;32.01;29.63;100816.34;4964847;28;20527;-73
2022/08/12 01:16:21;;;;;;;7.78;2.80;;;;;;;31.95;30.22;100816.66;4963174;28;20051;-71
2022/08/12 01:18:52;;;;;;;5.93;2.70;;;;;;;31.86;30.78;100822.56;4965823;28;20050;-77
2022/08/12 01:21:44;;;;;;;7.80;3.67;;;;;;;31.78;31.44;100823.03;4965753;28;20046;-73
2022/08/12 01:24:34;;;;;;;8.85;2.78;;;;;;;31.78;32.13;100820.34;4966080;28;20109;-73
2022/08/12 01:27:04;;;;;;;3.58;1.80;;;;;;;31.77;32.54;100823.97;4966571;28;20531;-74
2022/08/12 01:29:34;;;;;;;5.38;1.75;;;;;;;31.72;33.20;100823.38;4974440;28;20509;-79
2022/08/12 01:32:07;;;;;;;5.53;1.70;;;;;;;31.66;33.44;100823.75;4969192;28;20051;-73
2022/08/12 01:34:38;;;;;;;2.03;1.52;;;;;;;31.50;33.58;100827.28;4964127;28;20054;-72
2022/08/12 01:37:08;;;;;;;5.32;1.90;;;;;;;31.43;33.43;100825.91;4965437;28;20507;-74
2022/08/12 01:39:43;;;;;;;3.97;1.70;;;;;;;31.36;33.94;100835.22;4965835;28;20492;-72
2022/08/12 01:42:13;;;;;;;4.97;1.70;;;;;;;31.31;34.10;100847.94;4964639;28;20050;-73
2022/08/12 01:44:41;;;;;;;4.25;1.50;;;;;;;31.21;34.04;100828.03;4965492;28;20512;-74
2022/08/12 01:47:22;;;;;;;3.78;1.50;;;;;;;31.12;34.05;100836.56;4959920;28;20063;-74
2022/08/12 01:50:09;;;;;;;5.22;1.40;;;;;;;31.02;34.46;100836.22;4967548;28;20081;-75
2022/08/12 01:52:49;;;;;;;4.18;1.67;;;;;;;30.91;34.21;100844.81;4968951;28;20394;-74
2022/08/12 01:55:24;;;;;;;2.53;1.70;;;;;;;30.82;34.46;100835.44;4973853;28;20054;-73
2022/08/12 01:58:03;;;;;;;3.92;1.52;;;;;;;30.79;34.21;100842.78;4970852;28;20054;-73
2022/08/12 02:00:47;;;;;;;4.22;1.60;;;;;;;30.67;35.57;100846.94;4959390;28;20047;-73
2022/08/12 02:03:30;;;;;;;3.13;1.45;;;;;;;30.45;36.15;100845.41;4965512;28;20145;-74
2022/08/12 02:11:58;;;;;;;6.00;1.40;;;;;;;30.20;37.16;100847.59;4973831;28;20109;-73
2022/08/12 02:14:51;;;;;;;3.35;1.63;;;;;;;29.86;37.91;100850.16;4977189;28;20503;-71
2022/08/12 02:17:49;;;;;;;5.63;1.80;;;;;;;29.63;38.41;100845.91;4977253;28;20161;-71
2022/08/12 02:20:31;;;;;;;2.30;1.38;;;;;;;29.51;38.71;100849.19;4975088;28;20566;-72
2022/08/12 02:23:03;;;;;;;3.40;1.13;;;;;;;29.43;38.94;100862.00;4963911;28;20143;-72
2022/08/12 02:25:37;;;;;;;3.22;1.52;;;;;;;29.31;38.80;100855.47;4965735;28;20054;-71
2022/08/12 02:28:07;;;;;;;2.00;1.27;;;;;;;29.14;39.42;100856.25;4978717;28;20496;-72
2022/08/12 02:30:36;;;;;;;4.25;1.30;;;;;;;29.08;39.61;100861.88;4976350;28;20043;-72
2022/08/12 02:33:07;;;;;;;3.22;1.50;;;;;;;29.02;39.68;100868.31;4972860;28;20497;-73
2022/08/12 02:35:38;;;;;;;2.78;1.30;;;;;;;28.94;39.93;100865.13;4972246;28;20055;-71
2022/08/12 02:38:09;;;;;;;5.03;1.60;;;;;;;28.82;40.26;100861.22;4968597;28;20062;-75
2022/08/12 02:40:39;;;;;;;2.58;1.58;;;;;;;28.76;40.19;100860.63;4964509;28;20055;-71
2022/08/12 02:43:15;;;;;;;5.45;1.77;;;;;;;28.72;40.55;100870.53;4961068;28;20477;-76
2022/08/12 02:45:47;;;;;;;2.35;1.40;;;;;;;28.61;41.13;100867.47;4965445;28;20059;-73
2022/08/12 02:48:29;;;;;;;4.00;1.40;;;;;;;28.42;41.22;100870.06;4965448;28;20121;-73
2022/08/12 02:51:06;;;;;;;2.33;1.80;;;;;;;28.39;41.81;100872.84;4968027;28;20086;-73
2022/08/12 02:53:37;;;;;;;5.20;1.90;;;;;;;28.36;41.26;100873.00;4960885;28;20094;-74
2022/08/12 02:56:08;;;;;;;3.30;1.60;;;;;;;28.31;42.06;100877.63;4971777;28;20114;-72
2022/08/12 02:58:39;;;;;;;6.87;1.70;;;;;;;28.10;42.03;100882.91;4989882;28;20145;-72
2022/08/12 03:01:10;;;;;;;2.05;1.52;;;;;;;27.88;42.09;100887.41;4991087;28;20042;-74
2022/08/12 03:03:40;;;;;;;3.47;1.70;;;;;;;27.73;42.97;100887.06;4989812;28;20459;-73
2022/08/12 03:06:20;;;;;;;6.25;1.48;;;;;;;27.72;43.61;100892.44;4979476;28;20496;-71
2022/08/12 03:08:54;;;;;;;7.10;1.38;;;;;;;27.68;43.69;100899.66;4985273;28;20500;-73
2022/08/12 03:11:44;;;;;;;2.42;1.20;;;;;;;27.58;43.99;100896.50;4992755;28;20062;-73
2022/08/12 03:14:16;;;;;;;4.53;1.40;;;;;;;27.55;44.30;100903.72;4986737;28;20054;-72
2022/08/12 03:16:45;;;;;;;;;;;;;;;27.50;44.02;100903.03;4984304;28;20064;-72
2022/08/12 03:19:13;;;;;;;3.35;1.40;;;;;;;27.46;44.45;100901.44;4988358;28;19988;-72
2022/08/12 03:21:46;;;;;;;6.15;1.70;;;;;;;27.45;44.18;100910.34;4989414;28;20051;-72
2022/08/12 03:24:18;;;;;;;2.75;1.63;;;;;;;27.41;44.34;100906.91;4990268;28;20097;-72
2022/08/12 03:26:49;;;;;;;3.57;1.53;;;;;;;27.33;45.11;100917.84;4980872;28;20055;-71
2022/08/12 03:29:29;;;;;;;6.40;1.02;;;;;;;27.27;44.84;100922.53;4987646;28;20371;-73
2022/08/12 03:32:00;;;;;;;2.67;1.25;;;;;;;27.20;44.42;100924.53;4983839;28;20083;-72
2022/08/12 03:34:32;;;;;;;3.13;1.40;;;;;;;27.14;44.11;100924.72;4985568;28;20138;-73
2022/08/12 03:37:04;;;;;;;2.33;1.50;;;;;;;27.05;46.05;100922.41;4992093;28;20131;-71
2022/08/12 03:39:40;;;;;;;1.88;1.13;;;;;;;26.95;46.51;100928.03;4990348;28;20484;-71
2022/08/12 03:42:21;;;;;;;2.10;1.40;;;;;;;26.83;45.75;100928.50;4988084;28;20601;-72
2022/08/12 04:01:55;;;;;;;3.05;1.20;;;;;;;26.01;48.96;100955.97;4986655;28;20076;-70
2022/08/12 04:04:27;;;;;;;3.08;1.40;;;;;;;25.88;50.09;100958.13;4977282;28;20043;-71
2022/08/12 04:06:56;;;;;;;3.53;1.40;;;;;;;25.79;49.21;100956.59;4979362;28;20082;-73
2022/08/12 04:09:26;;;;;;;3.30;1.25;;;;;;;25.73;48.99;100963.88;4986485;28;20078;-71
2022/08/12 04:14:39;;;;;;;2.58;1.50;;;;;;;25.61;49.84;100971.28;4984682;28;20593;-71
2022/08/12 04:17:10;;;;;;;4.22;1.30;;;;;;;25.55;49.13;100971.47;4996880;28;20116;-73
2022/08/12 04:19:39;;;;;;;3.03;1.30;;;;;;;25.50;49.49;100973.38;4988550;28;20050;-70
2022/08/12 04:22:08;;;;;;;2.22;1.10;;;;;;;25.42;50.25;100964.78;4987249;28;20104;-71
2022/08/12 04:24:37;;;;;;;2.72;1.52;;;;;;;25.37;50.98;100974.63;4988970;28;20082;-71
2022/08/12 04:27:13;;;;;;;4.68;1.20;;;;;;;25.34;50.29;100972.09;4984109;28;20046;-70
2022/08/12 04:29:42;;;;;;;2.67;1.65;;;;;;;25.26;49.75;100975.78;4984830;28;20097;-70
2022/08/12 04:32:12;;;;;;;1.92;1.35;;;;;;;25.19;49.93;100981.31;4979202;28;20058;-69
2022/08/12 04:34:43;;;;;;;3.38;1.15;;;;;;;25.12;49.79;100980.59;4983103;28;20725;-70
2022/08/12 04:37:12;;;;;;;4.07;1.30;;;;;;;25.04;50.88;100980.81;4983982;28;20471;-70
2022/08/12 04:39:42;;;;;;;3.05;1.10;;;;;;;24.95;51.63;100981.03;4984586;28;20046;-70
2022/08/12 04:42:10;;;;;;;3.75;1.38;;;;;;;24.86;50.70;100983.94;4983439;28;20098;-72
2022/08/12 04:44:41;;;;;;;6.38;1.55;;;;;;;24.75;50.42;100986.84;4982496;28;20057;-70
2022/08/12 04:47:15;;;;;;;5.25;1.42;;;;;;;24.71;50.15;100992.25;4980126;28;20144;-71
2022/08/12 04:49:46;;;;;;;4.25;1.30;;;;;;;24.51;50.52;100991.00;4983814;28;20161;-71
2022/08/12 04:52:18;;;;;;;5.80;1.38;;;;;;;24.33;51.03;101002.00;4988373;28;20506;-72
2022/08/12 04:54:48;;;;;;;8.75;1.20;;;;;;;24.13;51.58;100995.38;4985052;28;20046;-70
2022/08/12 04:57:16;;;;;;;4.22;1.45;;;;;;;24.06;52.42;101000.84;4991572;28;20177;-71
2022/08/12 04:59:45;;;;;;;2.28;1.17;;;;;;;23.96;52.65;100995.78;4985893;28;20046;-73
2022/08/12 05:02:15;;;;;;;7.03;1.55;;;;;;;23.82;53.10;101009.28;4983257;28;20062;-72
2022/08/12 05:04:43;;;;;;;1.45;1.23;;;;;;;23.70;53.44;101005.97;4986014;28;20117;-72
2022/08/12 05:07:12;;;;;;;4.25;1.50;;;;;;;23.53;55.04;101015.13;4986784;28;20050;-71
2022/08/12 05:09:40;;;;;;;2.53;1.15;;;;;;;23.33;54.85;101018.16;4990397;28;20480;-70
2022/08/12 05:12:12;;;;;;;1.58;1.38;;;;;;;23.17;55.17;101022.84;4998181;28;20515;-72
2022/08/12 05:14:40;;;;;;;3.25;1.20;;;;;;;23.09;55.14;101014.22;4990961;28;20495;-72
2022/08/12 05:17:09;;;;;;;2.90;1.30;;;;;;;23.04;55.14;101023.97;4992465;28;20046;-72
2022/08/12 05:19:39;;;;;;;2.13;1.30;;;;;;;22.96;55.96;101020.56;4984901;28;20053;-72
2022/08/12 05:22:09;;;;;;;2.47;1.10;;;;;;;22.79;56.10;101027.00;4982477;28;20054;-71
2022/08/12 05:24:37;;;;;;;2.58;1.30;;;;;;;22.62;56.09;101031.69;4986001;28;20052;-71
2022/08/12 05:27:06;;;;;;;3.78;1.48;;;;;;;22.48;56.89;101042.44;4982603;28;20059;-71
2022/08/12 05:29:34;;;;;;;2.45;1.30;;;;;;;22.37;56.93;101044.38;4984851;28;20055;-74
2022/08/12 05:32:04;;;;;;;5.10;1.50;;;;;;;22.33;56.67;101037.41;4985794;28;20073;-71
2022/08/12 05:34:33;;;;;;;1.90;1.10;;;;;;;22.31;57.00;101040.06;4978849;28;20607;-71
2022/08/12 05:37:06;;;;;;;1.85;1.10;;;;;;;22.30;56.46;101037.44;4979353;28;20078;-73
2022/08/12 05:39:35;;;;;;;2.42;1.30;;;;;;;22.22;56.95;101034.03;4982622;28;20050;-71
2022/08/12 05:42:03;;;;;;;2.38;1.40;;;;;;;22.09;56.89;101031.56;4987711;28;20056;-72
2022/08/12 05:44:32;;;;;;;3.53;1.40;;;;;;;22.02;56.39;101037.81;4984830;28;20049;-71
2022/08/12 05:47:01;;;;;;;3.42;1.10;;;;;;;21.89;56.94;101034.44;4979358;28;20050;-73
2022/08/12 05:49:29;;;;;;;2.42;1.23;;;;;;;21.77;56.65;101037.25;4979015;28;20050;-72
2022/08/12 05:51:58;;;;;;;1.67;1.00;;;;;;;21.70;57.21;101038.22;4980888;28;20156;-72
2022/08/12 05:54:28;;;;;;;2.38;1.10;;;;;;;21.64;57.87;101040.91;4986096;28;20050;-71
2022/08/12 05:56:57;;;;;;;1.70;1.30;;;;;;;21.62;57.52;101042.69;4986176;28;20121;-71
2022/08/12 05:59:25;;;;;;;1.38;0.80;;;;;;;21.59;57.73;101042.72;4983567;28;20046;-71
2022/08/12 06:02:02;;;;;;;2.88;1.10;;;;;;;21.59;57.73;101043.59;4986316;28;20053;-71
2022/08/12 06:04:32;;;;;;;1.42;0.93;;;;;;;21.56;57.77;101042.78;4987607;28;20046;-71
2022/08/12 06:07:11;;;;;;;4.65;1.30;;;;;;;21.44;58.30;101047.28;4990318;28;20050;-73
2022/08/12 06:09:41;;;;;;;2.88;1.20;;;;;;;21.35;58.68;101049.97;4978981;28;20426;-70
2022/08/12 06:12:10;;;;;;;3.03;1.08;;;;;;;21.29;58.53;101053.53;4974634;28;20154;-70
2022/08/12 06:14:38;;;;;;;2.25;1.30;;;;;;;21.21;59.24;101060.66;4983467;28;20051;-70
2022/08/12 06:17:08;;;;;;;4.30;1.35;;;;;;;21.12;59.27;101058.97;4984505;28;20101;-72
2022/08/12 06:19:37;;;;;;;2.78;1.10;;;;;;;21.06;59.36;101059.00;4991873;28;20495;-74
2022/08/12 06:22:06;;;;;;;3.80;1.50;;;;;;;20.99;59.73;101067.84;4986927;28;20046;-75
2022/08/12 06:24:34;;;;;;;1.85;1.00;;;;;;;20.90;60.34;101060.91;4985304;28;20078;-72
2022/08/12 06:27:05;;;;;;;1.77;1.13;;;;;;;20.75;59.54;101065.41;4983657;28;20058;-72
2022/08/12 06:29:34;;;;;;;2.65;1.38;;;;;;;20.69;59.91;101076.84;4989597;28;20664;-72
2022/08/12 06:32:02;;;;;;;2.55;1.30;;;;;;;20.59;60.18;101070.81;4986325;28;20050;-71
2022/08/12 06:34:33;;;;;;;3.58;1.17;;;;;;;20.54;60.64;101072.53;4989469;28;20046;-70
2022/08/12 06:37:01;;;;;;;2.88;1.20;;;;;;;20.54;61.12;101074.28;4989483;28;20080;-71
2022/08/12 06:39:30;;;;;;;1.70;1.30;;;;;;;20.53;61.29;101077.81;4988351;28;20046;-71
2022/08/12 06:44:50;;;;;;;2.42;1.30;;;;;;;20.49;61.37;101090.09;4988688;28;20060;-71
2022/08/12 06:47:21;;;;;;;1.48;1.30;;;;;;;20.48;61.59;101085.72;4984977;28;20081;-70
2022/08/12 06:49:51;;;;;;;2.85;1.30;;;;;;;20.42;61.45;101091.88;4984124;28;20057;-70
2022/08/12 06:52:20;;;;;;;2.80;1.02;;;;;;;20.36;61.89;101091.91;4981982;28;20059;-70
2022/08/12 06:54:52;;;;;;;1.77;0.93;;;;;;;20.33;62.16;101101.59;4993884;28;20455;-70
2022/08/12 06:57:21;;;;;;;4.28;1.27;;;;;;;20.28;62.47;101094.59;4988203;28;20042;-70
2022/08/12 06:59:54;;;;;;;2.83;1.20;;;;;;;20.23;62.68;101096.38;4991730;28;20059;-71
2022/08/12 07:02:24;;;;;;;1.85;1.15;;;;;;;20.22;63.08;101097.22;4991266;28;20054;-70
2022/08/12 07:04:53;;;;;;;2.90;1.20;;;;;;;20.22;63.55;101094.59;5000210;28;20046;-71
2022/08/12 07:07:24;;;;;;;3.83;1.15;;;;;;;20.21;63.15;101095.50;4996667;28;20117;-70
2022/08/12 07:09:52;;;;;;;2.65;1.10;;;;;;;20.18;63.17;101103.41;4991656;28;20050;-71
2022/08/12 07:12:21;;;;;;;2.50;0.95;;;;;;;20.15;63.14;101105.16;4989432;28;20106;-71
2022/08/12 07:14:51;;;;;;;2.60;1.35;;;;;;;20.07;63.38;101107.84;4991096;28;20298;-71
2022/08/12 07:17:20;;;;;;;2.58;1.33;;;;;;;20.01;63.79;101098.22;4987618;28;20054;-72
2022/08/12 07:19:50;;;;;;;3.78;1.33;;;;;;;19.99;63.93;101102.59;4995335;28;20096;-71
2022/08/12 07:22:20;;;;;;;1.83;1.08;;;;;;;19.97;64.40;101100.84;4986237;28;20053;-72
2022/08/12 07:25:29;;;;;;;1.90;1.05;;;;;;;19.88;63.88;101094.78;4984254;28;20559;-72
2022/08/12 07:27:41;;;;;;;1.77;0.93;;;;;;;19.86;63.57;101099.16;4991945;28;20082;-73
2022/08/12 07:30:13;;;;;;;2.03;1.00;;;;;;;19.76;64.78;101100.03;4991228;28;20045;-72
2022/08/12 07:32:48;;;;;;;1.67;1.23;;;;;;;19.60;64.44;101104.41;4990970;28;20140;-71
2022/08/12 07:35:18;;;;;;;2.95;1.10;;;;;;;19.53;64.91;101096.56;4993663;28;20720;-71
2022/08/12 07:37:49;;;;;;;2.03;1.10;;;;;;;19.53;65.21;101101.81;4995257;28;20105;-72
2022/08/12 07:40:18;;;;;;;2.58;0.98;;;;;;;19.50;65.38;101112.34;4987329;28;20135;-72
2022/08/12 07:42:46;;;;;;;2.55;1.15;;;;;;;19.42;65.20;101105.34;4984601;28;20500;-71
2022/08/12 07:45:18;;;;;;;1.50;0.90;;;;;;;19.38;65.61;101114.09;4987963;28;20058;-71
2022/08/12 07:47:47;;;;;;;4.28;1.20;;;;;;;19.36;65.85;101121.09;4988750;28;20050;-71
2022/08/12 07:50:19;;;;;;;1.40;0.90;;;;;;;19.34;65.78;101111.47;4989028;28;20052;-71
2022/08/12 07:52:48;;;;;;;2.80;1.30;;;;;;;19.31;65.54;101107.13;4988128;28;20057;-73
2022/08/12 07:55:18;;;;;;;3.33;1.25;;;;;;;19.29;65.72;101108.88;4986115;28;20491;-72
2022/08/12 07:57:54;;;;;;;3.58;1.13;;;;;;;19.23;65.47;101114.09;4986122;28;20121;-72
2022/08/12 08:00:25;;;;;;;4.60;1.08;;;;;;;19.21;65.26;101115.84;4983335;28;20050;-71
2022/08/12 08:02:54;;;;;;;2.17;1.10;;;;;;;19.15;65.78;101118.47;4983912;28;20077;-72
2022/08/12 08:05:25;;;;;;;2.25;1.20;;;;;;;19.11;66.07;101122.00;4991995;28;20486;-72
2022/08/12 08:07:54;;;;;;;3.58;1.05;;;;;;;19.04;66.26;101115.88;4993357;28;20046;-71
2022/08/12 08:10:23;;;;;;;2.85;1.30;;;;;;;19.01;66.23;101124.59;4988531;28;20485;-71
2022/08/12 08:12:53;;;;;;;2.10;1.13;;;;;;;18.89;66.76;101121.94;4986178;28;20093;-71
2022/08/12 08:15:22;;;;;;;3.60;1.50;;;;;;;18.82;66.89;101120.19;4986746;28;20133;-71
2022/08/12 08:18:03;;;;;;;2.17;0.90;;;;;;;18.77;67.16;101130.69;4991820;28;20054;-73
2022/08/12 08:20:33;;;;;;;1.15;0.90;;;;;;;18.77;67.67;101121.94;4993901;28;20054;-71
2022/08/12 08:23:06;;;;;;;2.28;1.20;;;;;;;18.77;67.91;101127.19;4991177;28;20504;-72
2022/08/12 08:25:37;;;;;;;2.38;1.15;;;;;;;18.72;67.74;101129.78;4988440;28;20100;-71
2022/08/12 08:28:10;;;;;;;3.42;1.25;;;;;;;18.65;68.50;101130.63;4990342;28;20132;-70
2022/08/12 08:30:41;;;;;;;2.72;1.30;;;;;;;18.53;69.25;101125.34;4984458;28;20046;-72
2022/08/12 08:33:12;;;;;;;3.28;1.40;;;;;;;18.41;69.50;101126.19;4990094;28;20050;-73
2022/08/12 08:35:41;;;;;;;3.83;1.20;;;;;;;18.29;71.46;101124.41;4986741;28;20050;-73
2022/08/12 08:38:12;;;;;;;2.10;1.30;;;;;;;18.18;71.67;101128.72;4993644;28;20054;-72
2022/08/12 08:43:28;;;;;;;4.28;1.73;;;;;;;18.02;72.29;101125.16;4980868;28;20199;-72
2022/08/12 08:45:57;;;;;;;2.42;1.67;;;;;;;17.97;72.56;101124.28;4992525;28;20050;-72
2022/08/12 08:48:29;;;;;;;1.88;1.27;;;;;;;17.93;72.42;101128.59;4993795;28;20050;-74
2022/08/12 08:50:58;;;;;;;2.72;1.40;;;;;;;17.89;72.88;101118.09;4986127;28;20190;-73
2022/08/12 08:53:27;;;;;;;2.00;1.40;;;;;;;17.88;72.51;101124.22;4986455;28;20492;-74
2022/08/12 08:55:55;;;;;;;3.80;1.42;;;;;;;17.88;73.06;101117.25;4986426;28;20954;-74
2022/08/12 08:58:25;;;;;;;1.90;1.40;;;;;;;17.88;73.20;101106.75;4994176;28;20045;-72
2022/08/12 09:00:55;;;;;;;2.58;1.50;;;;;;;17.92;72.91;101107.66;4989467;28;20058;-72
2022/08/12 09:03:23;;;;;;;1.98;1.40;;;;;;;17.93;72.15;101109.41;4994308;28;20086;-73
2022/08/12 09:05:53;;;;;;;2.33;1.40;;;;;;;17.87;72.47;101106.78;4983449;28;20051;-73
2022/08/12 09:08:22;;;;;;;3.55;1.30;;;;;;;17.89;72.97;101116.38;4993695;28;20050;-73
2022/08/12 09:10:50;;;;;;;3.22;1.30;;;;;;;17.78;73.36;101105.81;4982095;28;20109;-74
2022/08/12 09:13:33;;;;;;;2.63;1.10;;;;;;;17.68;73.42;101117.09;4987884;28;20050;-72
2022/08/12 09:16:02;;;;;;;1.30;1.05;;;;;;;17.56;74.19;101112.66;4990592;28;20062;-71
2022/08/12 09:18:33;;;;;;;1.95;1.27;;;;;;;17.55;73.72;101110.91;4984991;28;20058;-72
2022/08/12 09:21:03;;;;;;;4.10;1.10;;;;;;;17.54;73.82;101113.50;4986686;28;20130;-72
2022/08/12 09:23:33;;;;;;;2.60;1.27;;;;;;;17.56;73.54;101114.41;4978355;28;20539;-72
2022/08/12 09:26:01;;;;;;;4.28;1.10;;;;;;;17.55;74.37;101113.53;4989638;28;20443;-73
2022/08/12 09:28:34;;;;;;;3.55;1.40;;;;;;;17.47;74.21;101112.59;4978923;28;20508;-73
2022/08/12 09:31:09;;;;;;;2.50;1.50;;;;;;;17.35;74.60;101113.38;4985115;28;20485;-74
2022/08/12 09:33:38;;;;;;;2.72;1.27;;;;;;;17.24;75.61;101111.56;4992924;28;20553;-73
2022/08/12 09:36:10;;;;;;;1.35;1.05;;;;;;;17.19;75.25;101113.28;4987744;28;20492;-72
2022/08/12 09:38:39;;;;;;;1.48;1.05;;;;;;;17.16;76.54;101111.50;4989173;28;20054;-73
2022/08/12 09:41:08;;;;;;;4.03;1.30;;;;;;;17.10;75.89;101121.91;4988073;28;20050;-72
2022/08/12 09:46:30;;;;;;;2.45;1.17;;;;;;;17.03;75.93;101115.75;4987038;28;20324;-72
2022/08/12 09:48:59;;;;;;;1.63;1.10;;;;;;;16.96;76.76;101114.81;4982528;28;20473;-72
2022/08/12 09:51:35;;;;;;;2.47;1.05;;;;;;;16.90;76.95;101119.09;4984824;28;20483;-73
2022/08/12 09:54:03;;;;;;;1.38;0.90;;;;;;;16.86;76.83;101118.22;4982384;28;20050;-73
2022/08/12 09:56:45;;;;;;;2.08;1.10;;;;;;;16.81;77.72;101114.66;4984648;28;20058;-72
2022/08/12 09:59:14;;;;;;;1.15;0.90;;;;;;;16.75;77.64;101114.59;4983842;28;20590;-73
2022/08/12 10:01:44;;;;;;;1.20;0.98;;;;;;;16.68;77.92;101115.38;4985167;28;20515;-72
2022/08/12 10:04:13;;;;;;;1.35;1.02;;;;;;;16.61;78.90;101116.19;4984320;28;20057;-72
2022/08/12 10:06:43;;;;;;;1.40;1.00;;;;;;;16.53;79.05;101113.47;4979930;28;20125;-72
2022/08/12 10:09:12;;;;;;;2.05;0.98;;;;;;;16.48;79.00;101118.66;4986995;28;20054;-72
2022/08/12 10:14:26;;;;;;;1.77;1.17;;;;;;;16.47;78.63;101113.41;4979826;28;20069;-72
2022/08/12 10:16:54;;;;;;;2.13;1.17;;;;;;;16.48;78.25;101115.19;4981827;28;20526;-72
2022/08/12 10:19:23;;;;;;;1.92;0.90;;;;;;;16.45;78.88;101121.25;4988548;28;20043;-73
2022/08/12 10:21:54;;;;;;;1.05;0.80;;;;;;;16.42;78.58;101130.75;4985096;28;20081;-73
2022/08/12 10:24:22;;;;;;;2.17;1.15;;;;;;;16.41;78.78;101126.41;4990992;28;20484;-71
2022/08/12 10:29:41;;;;;;;1.83;1.13;;;;;;;16.34;79.04;101133.31;4988362;28;20053;-71
2022/08/12 10:32:13;;;;;;;0.77;0.77;;;;;;;16.32;79.42;101122.81;4985721;28;20132;-71
2022/08/12 10:34:41;;;;;;;2.92;0.90;;;;;;;16.25;80.24;101122.75;4985502;28;20061;-71
2022/08/12 10:37:12;;;;;;;2.58;0.70;;;;;;;16.23;79.73;101120.09;4983389;28;20054;-72
2022/08/12 10:39:41;;;;;;;1.75;1.02;;;;;;;16.24;79.42;101131.41;4989154;28;20054;-73
2022/08/12 10:44:59;;;;;;;1.20;0.75;;;;;;;16.25;79.56;101118.38;4983850;28;20201;-72
2022/08/12 10:47:28;;;;;;;1.37;0.80;;;;;;;16.26;79.47;101125.38;4987330;28;20074;-72
2022/08/12 10:49:58;;;;;;;1.77;1.00;;;;;;;16.25;79.12;101122.75;4989538;28;20076;-72
2022/08/12 10:52:32;;;;;;;2.72;0.70;;;;;;;16.24;79.61;101127.09;4989249;28;20038;-72
2022/08/12 10:55:01;;;;;;;1.00;0.88;;;;;;;16.26;79.00;101125.38;4997127;28;20045;-73
2022/08/12 10:57:29;;;;;;;3.92;1.35;;;;;;;16.28;79.35;101118.41;4985058;28;20148;-72
2022/08/12 10:59:58;;;;;;;1.17;0.98;;;;;;;16.22;79.39;101120.97;5000010;28;20108;-75
2022/08/12 11:02:29;;;;;;;1.23;1.02;;;;;;;16.15;80.96;101126.97;4977850;28;20129;-72
2022/08/12 11:04:58;;;;;;;2.17;0.90;;;;;;;16.07;81.23;101126.88;4982196;28;20058;-72
2022/08/12 11:07:34;;;;;;;2.47;0.88;;;;;;;16.04;80.35;101124.22;4986007;28;20112;-73
2022/08/12 11:10:03;;;;;;;1.23;0.93;;;;;;;16.07;80.42;101126.88;4985471;28;20057;-71
2022/08/12 11:12:45;;;;;;;2.45;1.00;;;;;;;16.08;80.21;101125.13;4986259;28;20508;-72
2022/08/12 11:15:13;;;;;;;2.05;0.77;;;;;;;16.09;80.66;101127.75;4989816;28;20066;-73
2022/08/12 11:17:42;;;;;;;1.90;1.13;;;;;;;16.10;79.88;101128.63;4988116;28;20117;-73
2022/08/12 11:20:11;;;;;;;2.08;0.93;;;;;;;16.10;80.03;101126.03;4989914;28;20046;-72
2022/08/12 11:22:41;;;;;;;1.60;0.93;;;;;;;16.08;79.04;101131.25;4985788;28;20047;-73
2022/08/12 11:25:13;;;;;;;2.83;1.05;;;;;;;16.07;79.59;101126.88;4985976;28;20038;-73
2022/08/12 11:27:42;;;;;;;1.25;0.90;;;;;;;16.05;79.91;101119.88;4984005;28;20134;-73
2022/08/12 11:30:11;;;;;;;1.38;1.00;;;;;;;16.04;79.54;101120.75;4984391;28;20491;-73
2022/08/12 11:32:40;;;;;;;1.35;0.75;;;;;;;16.00;79.45;101122.44;4990653;28;20050;-73
2022/08/12 11:35:09;;;;;;;1.70;1.10;;;;;;;15.97;79.51;101122.41;4987190;28;20471;-72
2022/08/12 11:37:38;;;;;;;0.93;0.88;;;;;;;15.96;79.78;101120.63;4984057;28;20050;-72
2022/08/12 11:40:09;;;;;;;2.30;0.98;;;;;;;15.94;79.74;101116.25;4993823;28;20050;-72
2022/08/12 11:42:38;;;;;;;1.40;1.08;;;;;;;15.92;80.35;101118.84;4993617;28;20105;-73
2022/08/12 11:45:07;;;;;;;1.25;0.85;;;;;;;15.92;80.65;101113.63;4986643;28;20054;-73
2022/08/12 11:47:36;;;;;;;2.53;0.90;;;;;;;15.87;79.97;101113.56;4991044;28;20046;-73
2022/08/12 11:50:04;;;;;;;2.67;0.88;;;;;;;15.86;80.46;101117.03;4997307;28;20117;-73
2022/08/12 11:52:33;;;;;;;1.98;0.90;;;;;;;15.85;80.54;101114.38;4988729;28;20408;-71
2022/08/12 11:55:02;;;;;;;1.90;1.00;;;;;;;15.83;80.89;101103.06;4989863;28;20050;-72
2022/08/12 11:57:35;;;;;;;1.52;1.00;;;;;;;15.80;80.78;101111.72;4991300;28;20415;-72
2022/08/12 12:00:05;;;;;;;4.22;1.08;;;;;;;15.77;80.76;101102.97;4987705;28;20115;-72
2022/08/12 12:02:34;;;;;;;1.35;0.90;;;;;;;15.75;81.38;101105.56;4988733;28;20551;-73
2022/08/12 12:05:02;;;;;;;2.17;0.93;;;;;;;15.74;81.00;101113.38;4979140;28;20054;-72
2022/08/12 12:07:31;;;;;;;1.75;0.93;;;;;;;15.71;81.52;101103.75;4983142;28;20054;-72
2022/08/12 12:10:00;;;;;;;1.00;0.88;;;;;;;15.67;81.93;101121.09;4988292;28;20058;-73
2022/08/12 12:12:28;;;;;;;1.02;0.70;;;;;;;15.58;83.40;101122.69;4987986;28;20352;-73
2022/08/12 12:14:59;;;;;;;1.38;1.08;;;;;;;15.46;84.62;101128.56;4985334;28;20550;-74
2022/08/12 12:17:28;;;;;;;2.78;0.98;;;;;;;15.33;84.94;101116.22;4986869;28;20511;-75
2022/08/12 12:19:57;;;;;;;1.48;0.85;;;;;;;15.24;85.34;101122.16;4982871;28;20047;-72
2022/08/12 12:22:25;;;;;;;1.58;1.05;;;;;;;15.20;85.77;101131.66;4986953;28;20110;-71
2022/08/12 12:24:53;;;;;;;2.45;1.23;;;;;;;15.18;85.69;101132.47;4987640;28;20226;-72
2022/08/12 12:27:22;;;;;;;1.00;0.90;;;;;;;15.16;85.78;101132.44;4982330;28;20589;-74
2022/08/12 12:29:51;;;;;;;3.35;0.85;;;;;;;15.19;84.40;101137.72;4983503;28;20046;-73
2022/08/12 12:32:21;;;;;;;2.50;0.98;;;;;;;15.23;84.37;101146.44;4985478;28;20066;-74
2022/08/12 12:34:57;;;;;;;2.58;0.90;;;;;;;15.24;84.49;101138.66;4994757;28;20496;-73
2022/08/12 12:37:28;;;;;;;1.63;1.10;;;;;;;15.28;83.79;101130.06;4987962;28;20058;-72
2022/08/12 12:39:58;;;;;;;1.38;0.90;;;;;;;15.29;84.08;101138.75;4988957;28;20058;-72
2022/08/12 12:42:27;;;;;;;1.27;0.90;;;;;;;15.32;83.20;101145.72;4985009;28;20093;-72
2022/08/12 12:44:55;;;;;;;1.30;0.95;;;;;;;15.33;83.23;101144.91;4983931;28;20062;-72
2022/08/12 12:47:25;;;;;;;3.53;1.00;;;;;;;15.32;83.53;101133.56;4985711;28;20043;-72
2022/08/12 12:49:54;;;;;;;1.60;1.08;;;;;;;15.32;84.57;101146.59;4983294;28;20042;-72
2022/08/12 12:52:22;;;;;;;2.05;1.00;;;;;;;15.26;84.80;101147.41;4987129;28;20050;-72
2022/08/12 12:54:57;;;;;;;1.30;0.98;;;;;;;15.18;85.76;101142.91;4985521;28;20053;-75
2022/08/12 12:57:25;;;;;;;1.40;0.98;;;;;;;15.05;85.89;101142.69;4979820;28;20064;-73
2022/08/12 13:02:39;;;;;;;2.97;1.27;;;;;;;14.98;86.53;101142.53;4985898;28;20043;-76
2022/08/12 13:05:08;;;;;;;1.10;0.80;;;;;;;15.01;86.54;101145.22;4991405;28;20046;-75
2022/08/12 13:07:40;;;;;;;1.55;0.98;;;;;;;15.01;86.01;101142.63;4986566;28;20447;-73
2022/08/12 13:10:12;;;;;;;1.27;0.80;;;;;;;15.06;86.06;101148.78;4986861;28;20492;-72
2022/08/12 13:12:43;;;;;;;2.33;0.73;;;;;;;15.06;85.22;101148.78;4969261;28;20404;-73
2022/08/12 13:15:14;;;;;;;2.72;0.88;;;;;;;15.06;84.56;101154.00;4987955;28;20125;-71
2022/08/12 13:17:49;;;;;;;1.17;0.93;;;;;;;15.07;84.76;101145.31;4983457;28;20050;-72
2022/08/12 13:20:18;;;;;;;2.13;0.85;;;;;;;15.07;84.34;101147.91;4984051;28;20093;-73
2022/08/12 13:22:47;;;;;;;1.50;1.00;;;;;;;15.07;84.28;101147.91;4978119;28;20046;-73